Terminal Aerodrome Forecast
Issued by NWS Pittsburgh, PA

Current Version | Previous Version | Graphics & Text | Print | Product List | Glossary On
Versions: 1 2 3 4 5 6 7 8 9 10 11 12 13 14 15 16 17 18 19 20 21 22 23 24 25 26 27
000
FTUS41 KPBZ 210858 AAA
TAFPIT
TAF AMD
KPIT 210858Z 2109/2212 13006KT P6SM BKN200 WS015/18033KT
     FM211500 15008G16KT P6SM VCSH BKN050
     FM211800 17019G20KT P6SM -SHRA VCTS OVC035CB
     FM220100 18008KT P6SM VCSH OVC025
     FM220400 19007KT P6SM OVC015=

USA.gov is the U.S. government's official web portal to all federal, state and local government web resources and services.